Terminal Aerodrome Forecast
Issued by NWS

Home | Current Version | Previous Version | Text Only | Print | Product List | Glossary On
Versions: 1 2 3 4 5 6 7 8 9 10 11 12 13 14
000
FTUS42 TJSJ 011700
TAFKPK
TAF
TKPK 011730Z 0118/0218 05013KT P6SM FEW020
      TEMPO 0118/0119 BKN018
     FM012300 06011KT P6SM FEW022
     FM021300 06015KT P6SM SCT022
      AMD NOT SKED 0202/0211=

USA.gov is the U.S. government's official web portal to all federal, state and local government web resources and services.